createdAt,value
2018-10-01T00:00:27.447Z,25.40
2018-10-01T00:02:55.973Z,25.80
2018-10-01T00:05:24.498Z,26.97
2018-10-01T00:07:53.354Z,26.80
2018-10-01T00:10:22.515Z,27.60
2018-10-01T00:12:50.923Z,28.47
2018-10-01T00:15:19.324Z,30.20
2018-10-01T00:17:47.735Z,30.53
2018-10-01T00:20:22.156Z,29.53
2018-10-01T00:22:50.977Z,28.70
2018-10-01T00:25:19.417Z,31.77
2018-10-01T00:27:48.096Z,32.53
2018-10-01T00:30:16.516Z,32.83
2018-10-01T00:32:45.163Z,31.13
2018-10-01T00:35:13.853Z,32.47
2018-10-01T00:37:42.761Z,32.43
2018-10-01T00:40:12.258Z,32.23
2018-10-01T00:42:40.649Z,33.87
2018-10-01T00:45:10.042Z,32.87
2018-10-01T00:47:39.167Z,32.77
2018-10-01T00:50:08.464Z,31.03
2018-10-01T00:52:36.915Z,32.07
2018-10-01T00:55:05.411Z,34.33
2018-10-01T00:57:34.278Z,33.33
2018-10-01T01:00:03.103Z,32.53
2018-10-01T01:02:31.569Z,32.87
2018-10-01T01:05:00.853Z,33.93
2018-10-01T01:07:29.417Z,32.70
2018-10-01T01:09:57.949Z,32.73
2018-10-01T01:12:26.925Z,32.73
2018-10-01T01:14:55.627Z,31.93
2018-10-01T01:17:24.245Z,33.50
2018-10-01T01:19:52.847Z,32.80
2018-10-01T01:22:21.332Z,33.87
2018-10-01T01:24:49.934Z,32.57
2018-10-01T01:27:19.043Z,33.47
2018-10-01T01:29:47.467Z,32.70
2018-10-01T01:32:16.026Z,33.37
2018-10-01T01:34:45.103Z,32.47
2018-10-01T01:37:13.915Z,32.20
2018-10-01T01:39:42.333Z,30.17
2018-10-01T01:42:11.137Z,27.93
2018-10-01T01:44:39.528Z,30.27
2018-10-01T01:47:08.486Z,31.33
2018-10-01T01:49:37.038Z,31.20
2018-10-01T01:52:05.602Z,31.97
2018-10-01T01:54:34.389Z,31.67
2018-10-01T01:57:02.933Z,31.43
2018-10-01T01:59:31.517Z,32.50
2018-10-01T02:02:00.408Z,36.47
2018-10-01T02:04:29.212Z,42.13
2018-10-01T02:06:57.775Z,45.13
2018-10-01T02:09:26.547Z,49.20
2018-10-01T02:11:55.495Z,49.23
2018-10-01T02:14:24.159Z,47.90
2018-10-01T02:16:53.328Z,50.03
2018-10-01T02:19:21.911Z,49.30
2018-10-01T02:21:50.690Z,50.40
2018-10-01T02:24:19.295Z,48.40
2018-10-01T02:26:47.787Z,48.93
2018-10-01T02:29:16.724Z,49.73
2018-10-01T02:31:45.258Z,49.93
2018-10-01T02:34:13.808Z,49.10
2018-10-01T02:36:42.268Z,49.90
2018-10-01T02:39:12.817Z,49.13
2018-10-01T02:41:41.417Z,45.77
2018-10-01T02:44:09.960Z,48.20
2018-10-01T02:46:39.147Z,45.70
2018-10-01T02:49:07.785Z,46.27
2018-10-01T02:51:42.045Z,45.90
2018-10-01T02:54:15.737Z,46.50
2018-10-01T02:56:44.460Z,46.33
2018-10-01T02:59:13.407Z,47.10
2018-10-01T03:01:42.721Z,45.77
2018-10-01T03:04:11.158Z,46.27
2018-10-01T03:06:39.545Z,46.03
2018-10-01T03:09:11.977Z,45.33
2018-10-01T03:11:40.733Z,45.53
2018-10-01T03:14:10.097Z,47.67
2018-10-01T03:16:38.505Z,47.07
2018-10-01T03:19:07.612Z,47.73
2018-10-01T03:21:37.704Z,46.90
2018-10-01T03:24:06.836Z,45.90
2018-10-01T03:26:35.601Z,45.17
2018-10-01T03:29:04.361Z,44.53
2018-10-01T03:31:33.342Z,45.67
2018-10-01T03:34:01.759Z,45.67
2018-10-01T03:36:30.665Z,45.93
2018-10-01T03:38:59.114Z,46.53
2018-10-01T03:41:27.805Z,45.80
2018-10-01T03:43:56.292Z,46.23
2018-10-01T03:46:24.710Z,46.83
2018-10-01T03:48:53.471Z,46.23
2018-10-01T03:51:22.125Z,45.37
2018-10-01T03:53:51.052Z,47.07
2018-10-01T03:56:19.712Z,45.80
2018-10-01T03:58:48.844Z,45.83
2018-10-01T04:01:17.484Z,44.40
2018-10-01T04:03:46.074Z,43.07
2018-10-01T04:06:15.493Z,41.57
2018-10-01T04:08:44.412Z,42.10
2018-10-01T04:11:12.937Z,41.43
2018-10-01T04:13:42.177Z,42.00
2018-10-01T04:16:10.802Z,39.03
2018-10-01T04:18:39.193Z,42.23
2018-10-01T04:21:08.440Z,43.80
2018-10-01T04:23:37.075Z,40.77
2018-10-01T04:26:06.026Z,40.53
2018-10-01T04:28:35.000Z,40.73
2018-10-01T04:31:03.950Z,37.90
2018-10-01T04:33:32.471Z,39.73
2018-10-01T04:36:00.999Z,36.20
2018-10-01T04:38:29.456Z,37.43
2018-10-01T04:40:58.200Z,36.47
2018-10-01T04:43:27.133Z,36.60
2018-10-01T04:45:56.072Z,35.43
2018-10-01T04:48:24.963Z,36.70
2018-10-01T04:50:53.549Z,34.60
2018-10-01T04:53:22.474Z,34.67
2018-10-01T04:55:51.409Z,34.77
2018-10-01T04:58:21.367Z,34.90
2018-10-01T05:00:50.304Z,32.97
2018-10-01T05:03:18.951Z,34.30
2018-10-01T05:05:47.524Z,34.27
2018-10-01T05:08:16.515Z,34.87
2018-10-01T05:10:46.697Z,34.03
2018-10-01T05:13:15.222Z,34.57
2018-10-01T05:15:44.042Z,31.17
2018-10-01T05:18:13.712Z,32.57
2018-10-01T05:20:42.822Z,33.27
2018-10-01T05:25:59.018Z,33.13
2018-10-01T05:28:28.124Z,33.10
2018-10-01T05:30:56.531Z,32.60
2018-10-01T05:33:25.645Z,32.00
2018-10-01T05:35:54.434Z,33.07
2018-10-01T05:38:23.050Z,32.17
2018-10-01T05:40:52.235Z,32.70
2018-10-01T05:43:21.120Z,30.70
2018-10-01T05:45:49.620Z,32.27
2018-10-01T05:48:18.171Z,32.13
2018-10-01T05:50:46.657Z,32.03
2018-10-01T05:53:19.337Z,32.87
2018-10-01T05:55:51.918Z,33.93
2018-10-01T05:58:22.316Z,34.73
2018-10-01T06:00:51.195Z,33.87
2018-10-01T06:03:21.609Z,33.10
2018-10-01T06:05:50.786Z,32.97
2018-10-01T06:08:20.984Z,34.07
2018-10-01T06:10:49.648Z,34.27
2018-10-01T06:13:18.341Z,34.23
2018-10-01T06:15:47.087Z,32.50
2018-10-01T06:18:16.170Z,35.23
2018-10-01T06:20:45.324Z,33.33
2018-10-01T06:23:13.978Z,32.23
2018-10-01T06:25:42.539Z,34.17
2018-10-01T06:28:11.052Z,32.43
2018-10-01T06:30:39.662Z,30.27
2018-10-01T06:33:08.526Z,29.73
2018-10-01T06:35:37.546Z,27.77
2018-10-01T06:38:06.288Z,30.33
2018-10-01T06:40:34.926Z,30.07
2018-10-01T06:43:03.999Z,29.40
2018-10-01T06:45:32.957Z,30.93
2018-10-01T06:48:01.410Z,28.00
2018-10-01T06:50:30.504Z,31.10
2018-10-01T06:52:59.443Z,28.37
2018-10-01T06:55:28.099Z,27.30
2018-10-01T06:57:57.239Z,26.43
2018-10-01T07:00:25.664Z,25.17
2018-10-01T07:02:54.363Z,26.57
2018-10-01T07:05:22.936Z,25.50
2018-10-01T07:07:51.384Z,24.73
2018-10-01T07:10:20.282Z,22.83
2018-10-01T07:12:48.694Z,24.67
2018-10-01T07:15:18.241Z,23.87
2018-10-01T07:17:47.148Z,22.27
2018-10-01T07:20:16.021Z,21.37
2018-10-01T07:22:44.491Z,21.83
2018-10-01T07:25:13.522Z,21.57
2018-10-01T07:27:41.961Z,19.80
2018-10-01T07:30:11.039Z,15.10
2018-10-01T07:32:39.469Z,11.57
2018-10-01T07:35:08.684Z,12.67
2018-10-01T07:37:37.167Z,12.00
2018-10-01T07:40:05.650Z,11.80
2018-10-01T07:42:34.110Z,11.30
2018-10-01T07:45:02.981Z,11.23
2018-10-01T07:47:32.280Z,11.47
2018-10-01T07:50:01.001Z,12.27
2018-10-01T07:52:29.472Z,11.97
2018-10-01T07:54:57.979Z,13.50
2018-10-01T07:57:26.490Z,13.27
2018-10-01T07:59:55.873Z,14.87
2018-10-01T08:02:24.622Z,14.77
2018-10-01T08:04:53.247Z,14.87
2018-10-01T08:07:21.729Z,15.50
2018-10-01T08:09:50.674Z,16.50
2018-10-01T08:12:19.704Z,16.07
2018-10-01T08:14:48.852Z,16.63
2018-10-01T08:17:17.777Z,17.47
2018-10-01T08:19:46.300Z,16.70
2018-10-01T08:22:15.467Z,17.23
2018-10-01T08:24:44.802Z,17.40
2018-10-01T08:27:13.691Z,17.53
2018-10-01T08:29:42.620Z,18.03
2018-10-01T08:32:11.048Z,17.77
2018-10-01T08:34:39.526Z,17.37
2018-10-01T08:37:08.332Z,17.30
2018-10-01T08:39:37.252Z,17.03
2018-10-01T08:42:05.796Z,16.93
2018-10-01T08:44:34.667Z,16.23
2018-10-01T08:47:03.338Z,14.53
2018-10-01T08:49:43.246Z,15.73
2018-10-01T08:53:18.353Z,17.40
2018-10-01T08:55:48.104Z,15.13
2018-10-01T08:58:16.690Z,16.73
2018-10-01T09:00:45.390Z,25.73
2018-10-01T09:03:14.512Z,26.17
2018-10-01T09:05:43.564Z,18.00
2018-10-01T09:08:12.692Z,17.23
2018-10-01T09:10:41.961Z,15.97
2018-10-01T09:13:10.424Z,15.53
2018-10-01T09:15:39.079Z,15.33
2018-10-01T09:18:07.610Z,16.47
2018-10-01T09:20:36.294Z,24.07
2018-10-01T09:23:05.449Z,16.73
2018-10-01T09:25:34.528Z,18.03
2018-10-01T09:28:03.653Z,17.67
2018-10-01T09:30:32.609Z,18.17
2018-10-01T09:33:01.076Z,25.67
2018-10-01T09:35:30.074Z,17.87
2018-10-01T09:37:58.915Z,15.03
2018-10-01T09:40:27.549Z,15.50
2018-10-01T09:42:56.649Z,15.37
2018-10-01T09:45:25.268Z,15.37
2018-10-01T09:47:54.224Z,15.27
2018-10-01T09:50:23.917Z,15.03
2018-10-01T09:52:52.922Z,14.30
2018-10-01T09:55:21.568Z,14.83
2018-10-01T09:57:50.374Z,14.33
2018-10-01T10:00:24.853Z,15.17
2018-10-01T10:02:53.404Z,14.17
2018-10-01T10:05:21.928Z,15.23
2018-10-01T10:07:50.642Z,13.97
2018-10-01T10:10:19.172Z,13.03
2018-10-01T10:12:47.726Z,12.90
2018-10-01T10:15:17.247Z,13.27
2018-10-01T10:17:45.755Z,13.30
2018-10-01T10:20:14.563Z,13.97
2018-10-01T10:22:43.251Z,14.00
2018-10-01T10:25:12.475Z,14.17
2018-10-01T10:27:41.323Z,15.13
2018-10-01T10:30:10.526Z,13.93
2018-10-01T10:32:39.688Z,14.27
2018-10-01T10:35:08.452Z,13.67
2018-10-01T10:37:37.016Z,13.30
2018-10-01T10:40:06.181Z,12.67
2018-10-01T10:42:35.109Z,13.10
2018-10-01T10:45:04.084Z,12.30
2018-10-01T10:47:36.734Z,11.67
2018-10-01T10:50:06.956Z,13.60
2018-10-01T10:52:37.479Z,12.17
2018-10-01T10:55:07.261Z,13.33
2018-10-01T10:57:37.456Z,11.57
2018-10-01T11:00:07.654Z,12.00
2018-10-01T11:02:37.475Z,12.43
2018-10-01T11:05:08.296Z,12.77
2018-10-01T11:07:39.533Z,12.60
2018-10-01T11:10:09.750Z,13.20
2018-10-01T11:12:39.240Z,12.80
2018-10-01T11:15:09.067Z,11.77
2018-10-01T11:17:37.984Z,12.00
2018-10-01T11:20:07.366Z,11.80
2018-10-01T11:22:36.405Z,11.77
2018-10-01T11:25:06.622Z,12.17
2018-10-01T11:27:36.100Z,11.50
2018-10-01T11:30:06.110Z,11.73
2018-10-01T11:32:36.220Z,11.07
2018-10-01T11:35:05.763Z,12.47
2018-10-01T11:37:35.060Z,12.53
2018-10-01T11:40:04.270Z,11.70
2018-10-01T11:42:33.119Z,14.03
2018-10-01T11:45:02.561Z,12.37
2018-10-01T11:47:31.214Z,13.07
2018-10-01T11:50:00.012Z,11.93
2018-10-01T11:52:28.919Z,11.87
2018-10-01T11:54:58.414Z,11.90
2018-10-01T11:57:27.500Z,11.93
2018-10-01T11:59:56.819Z,12.80
2018-10-01T12:02:26.118Z,12.83
2018-10-01T12:04:57.336Z,12.63
2018-10-01T12:07:27.787Z,12.50
2018-10-01T12:09:57.034Z,12.70
2018-10-01T12:12:26.126Z,13.00
2018-10-01T12:14:55.523Z,12.33
2018-10-01T12:17:24.506Z,12.13
2018-10-01T12:19:53.083Z,12.97
2018-10-01T12:22:22.595Z,11.83
2018-10-01T12:24:51.394Z,12.63
2018-10-01T12:27:20.145Z,12.60
2018-10-01T12:29:49.430Z,12.30
2018-10-01T12:32:18.383Z,12.13
2018-10-01T12:34:47.538Z,12.47
2018-10-01T12:37:16.263Z,11.97
2018-10-01T12:39:46.472Z,12.13
2018-10-01T12:42:15.140Z,12.73
2018-10-01T12:44:43.638Z,12.17
2018-10-01T12:47:13.275Z,13.97
2018-10-01T12:49:42.750Z,13.27
2018-10-01T12:52:11.867Z,9.80
2018-10-01T12:56:34.523Z,9.87
2018-10-01T12:59:03.215Z,9.77
2018-10-01T13:01:32.533Z,10.30
2018-10-01T13:06:44.239Z,9.90
2018-10-01T13:09:13.525Z,11.10
2018-10-01T13:11:47.450Z,11.30
2018-10-01T13:14:16.914Z,10.50
2018-10-01T13:16:45.959Z,10.77
2018-10-01T13:19:15.486Z,10.43
2018-10-01T13:21:44.138Z,11.30
2018-10-01T13:24:12.957Z,12.20
2018-10-01T13:26:41.777Z,12.90
2018-10-01T13:29:11.222Z,14.50
2018-10-01T13:31:40.880Z,16.93
2018-10-01T13:34:10.016Z,18.47
2018-10-01T13:36:38.682Z,18.60
2018-10-01T13:39:09.744Z,18.83
2018-10-01T13:41:38.931Z,19.43
2018-10-01T13:44:07.758Z,18.80
2018-10-01T13:46:36.473Z,19.13
2018-10-01T13:49:04.964Z,17.43
2018-10-01T13:51:34.129Z,19.60
2018-10-01T13:54:02.789Z,20.67
2018-10-01T13:56:31.511Z,18.80
2018-10-01T13:59:07.144Z,19.30
2018-10-01T14:01:38.845Z,19.53
2018-10-01T14:04:07.373Z,19.30
2018-10-01T14:06:35.987Z,19.80
2018-10-01T14:09:11.027Z,19.17
2018-10-01T14:11:39.953Z,18.57
2018-10-01T14:14:08.709Z,17.53
2018-10-01T14:16:37.433Z,18.07
2018-10-01T14:19:06.397Z,17.77
2018-10-01T14:21:35.661Z,18.23
2018-10-01T14:24:05.353Z,17.57
2018-10-01T14:26:36.601Z,19.80
2018-10-01T14:29:05.183Z,18.93
2018-10-01T14:31:33.744Z,18.53
2018-10-01T14:34:02.622Z,18.00
2018-10-01T14:36:31.743Z,16.87
2018-10-01T14:39:00.289Z,16.80
2018-10-01T14:41:28.902Z,18.80
2018-10-01T14:43:57.940Z,19.17
2018-10-01T14:46:26.494Z,17.93
2018-10-01T14:48:55.079Z,17.87
2018-10-01T14:51:24.316Z,15.87
2018-10-01T14:53:52.798Z,15.53
2018-10-01T14:56:21.675Z,16.77
2018-10-01T14:58:50.133Z,19.43
2018-10-01T15:01:18.568Z,14.70
2018-10-01T15:03:47.381Z,18.27
2018-10-01T15:06:15.893Z,14.47
2018-10-01T15:08:44.797Z,17.70
2018-10-01T15:11:15.598Z,16.43
2018-10-01T15:13:44.089Z,18.80
2018-10-01T15:16:12.874Z,20.80
2018-10-01T15:18:41.392Z,15.30
2018-10-01T15:21:09.824Z,13.83
2018-10-01T15:23:38.354Z,13.67
2018-10-01T15:26:07.127Z,12.63
2018-10-01T15:28:35.873Z,10.97
2018-10-01T15:31:04.684Z,10.67
2018-10-01T15:33:33.211Z,10.00
2018-10-01T15:36:02.418Z,10.03
2018-10-01T15:38:31.184Z,10.00
2018-10-01T15:41:00.030Z,10.00
2018-10-01T15:43:28.751Z,9.43
2018-10-01T15:45:57.853Z,9.77
2018-10-01T15:48:26.543Z,10.60
2018-10-01T15:50:55.666Z,9.63
2018-10-01T15:53:24.120Z,8.93
2018-10-01T15:55:52.595Z,9.30
2018-10-01T15:58:21.043Z,9.33
2018-10-01T16:00:50.710Z,9.43
2018-10-01T16:03:19.452Z,9.57
2018-10-01T16:05:47.853Z,9.67
2018-10-01T16:08:16.372Z,10.13
2018-10-01T16:10:45.170Z,8.53
2018-10-01T16:13:14.817Z,7.70
2018-10-01T16:15:43.568Z,6.67
2018-10-01T16:18:12.365Z,6.67
2018-10-01T16:20:41.114Z,6.53
2018-10-01T16:23:10.030Z,5.97
2018-10-01T16:25:39.310Z,5.40
2018-10-01T16:28:08.128Z,5.10
2018-10-01T16:30:36.849Z,5.07
2018-10-01T16:33:05.499Z,5.33
2018-10-01T16:35:34.153Z,5.20
2018-10-01T16:38:03.082Z,5.20
2018-10-01T16:40:31.883Z,6.07
2018-10-01T16:43:01.583Z,4.80
2018-10-01T16:45:30.565Z,5.10
2018-10-01T16:47:59.461Z,5.10
2018-10-01T16:50:28.194Z,4.33
2018-10-01T16:52:56.861Z,4.33
2018-10-01T16:55:25.593Z,4.40
2018-10-01T16:57:55.229Z,4.60
2018-10-01T17:00:24.040Z,4.50
2018-10-01T17:02:53.064Z,5.00
2018-10-01T17:05:22.297Z,4.97
2018-10-01T17:07:50.768Z,5.17
2018-10-01T17:10:19.619Z,5.00
2018-10-01T17:12:48.612Z,6.03
2018-10-01T17:15:17.157Z,5.80
2018-10-01T17:17:46.638Z,5.60
2018-10-01T17:20:15.435Z,6.00
2018-10-01T17:22:44.129Z,6.60
2018-10-01T17:25:12.715Z,7.43
2018-10-01T17:27:41.488Z,7.73
2018-10-01T17:30:10.596Z,7.20
2018-10-01T17:32:39.499Z,7.03
2018-10-01T17:35:07.971Z,8.17
2018-10-01T17:37:36.855Z,7.70
2018-10-01T17:40:06.295Z,7.60
2018-10-01T17:42:34.919Z,8.43
2018-10-01T17:45:03.514Z,8.97
2018-10-01T17:47:32.678Z,9.40
2018-10-01T17:50:01.696Z,9.30
2018-10-01T17:52:30.732Z,9.20
2018-10-01T17:54:59.199Z,9.40
2018-10-01T17:57:27.875Z,8.50
2018-10-01T17:59:56.447Z,9.93
2018-10-01T18:02:25.315Z,8.93
2018-10-01T18:04:54.028Z,9.23
2018-10-01T18:07:22.949Z,9.23
2018-10-01T18:09:51.452Z,8.80
2018-10-01T18:12:20.661Z,8.00
2018-10-01T18:14:49.204Z,8.03
2018-10-01T18:17:18.421Z,7.43
2018-10-01T18:19:47.203Z,6.53
2018-10-01T18:22:15.776Z,7.37
2018-10-01T18:24:44.329Z,7.03
2018-10-01T18:27:13.571Z,6.60
2018-10-01T18:29:42.033Z,6.07
2018-10-01T18:32:10.640Z,6.20
2018-10-01T18:34:39.137Z,6.43
2018-10-01T18:37:07.669Z,6.60
2018-10-01T18:39:36.287Z,6.37
2018-10-01T18:42:04.811Z,6.83
2018-10-01T18:44:33.698Z,7.93
2018-10-01T18:47:02.299Z,7.97
2018-10-01T18:49:31.553Z,9.63
2018-10-01T18:51:59.985Z,10.53
2018-10-01T18:54:28.486Z,10.27
2018-10-01T18:56:58.347Z,12.33
2018-10-01T18:59:26.867Z,12.50
2018-10-01T19:01:55.658Z,11.90
2018-10-01T19:04:24.150Z,12.20
2018-10-01T19:06:53.182Z,12.50
2018-10-01T19:09:22.109Z,13.20
2018-10-01T19:11:50.757Z,12.63
2018-10-01T19:14:19.227Z,12.77
2018-10-01T19:16:47.959Z,13.60
2018-10-01T19:19:17.027Z,13.30
2018-10-01T19:21:45.886Z,13.10
2018-10-01T19:24:14.418Z,12.33
2018-10-01T19:26:43.234Z,12.60
2018-10-01T19:29:11.886Z,12.13
2018-10-01T19:31:41.002Z,12.47
2018-10-01T19:34:09.903Z,12.30
2018-10-01T19:36:38.372Z,11.27
2018-10-01T19:39:07.871Z,11.03
2018-10-01T19:41:36.967Z,10.63
2018-10-01T19:44:05.563Z,10.57
2018-10-01T19:46:34.642Z,10.00
2018-10-01T19:49:03.678Z,10.30
2018-10-01T19:51:32.857Z,10.23
2018-10-01T19:54:01.455Z,9.77
2018-10-01T19:56:30.138Z,9.67
2018-10-01T19:58:58.738Z,9.90
2018-10-01T20:01:27.470Z,9.70
2018-10-01T20:03:56.416Z,9.53
2018-10-01T20:06:24.968Z,9.63
2018-10-01T20:08:53.696Z,9.03
2018-10-01T20:11:22.122Z,9.10
2018-10-01T20:13:51.534Z,9.33
2018-10-01T20:16:20.681Z,8.97
2018-10-01T20:18:49.263Z,8.80
2018-10-01T20:21:17.770Z,8.80
2018-10-01T20:23:46.217Z,8.53
2018-10-01T20:26:15.428Z,8.90
2018-10-01T20:28:43.888Z,9.30
2018-10-01T20:31:12.334Z,10.13
2018-10-01T20:33:41.021Z,7.90
2018-10-01T20:36:09.795Z,8.13
2018-10-01T20:38:38.369Z,8.30
2018-10-01T20:41:07.166Z,7.40
2018-10-01T20:43:35.985Z,6.60
2018-10-01T20:46:05.293Z,7.03
2018-10-01T20:48:33.839Z,6.37
2018-10-01T20:51:02.623Z,6.13
2018-10-01T20:53:31.353Z,6.23
2018-10-01T20:56:00.113Z,6.57
2018-10-01T20:58:28.472Z,6.47
2018-10-01T21:00:56.911Z,6.90
2018-10-01T21:03:25.595Z,6.97
2018-10-01T21:05:54.037Z,7.03
2018-10-01T21:08:22.786Z,6.67
2018-10-01T21:10:51.253Z,7.70
2018-10-01T21:13:19.745Z,7.73
2018-10-01T21:15:48.902Z,8.00
2018-10-01T21:18:17.705Z,7.80
2018-10-01T21:20:46.111Z,7.60
2018-10-01T21:23:14.683Z,6.93
2018-10-01T21:25:43.304Z,7.63
2018-10-01T21:28:12.043Z,8.27
2018-10-01T21:30:40.834Z,7.77
2018-10-01T21:33:09.376Z,8.17
2018-10-01T21:35:37.904Z,9.00
2018-10-01T21:38:06.772Z,8.80
2018-10-01T21:40:35.213Z,8.70
2018-10-01T21:43:03.817Z,8.67
2018-10-01T21:45:32.514Z,8.53
2018-10-01T21:48:01.384Z,8.93
2018-10-01T21:50:29.891Z,8.70
2018-10-01T21:52:58.473Z,9.10
2018-10-01T21:55:27.191Z,9.40
2018-10-01T21:57:55.820Z,9.20
2018-10-01T22:00:24.964Z,8.80
2018-10-01T22:02:53.386Z,9.10
2018-10-01T22:05:21.816Z,8.60
2018-10-01T22:07:50.561Z,8.90
2018-10-01T22:10:19.046Z,8.80
2018-10-01T22:12:47.916Z,9.13
2018-10-01T22:15:16.338Z,9.33
2018-10-01T22:17:45.076Z,8.57
2018-10-01T22:20:13.483Z,9.40
2018-10-01T22:22:42.269Z,9.43
2018-10-01T22:25:10.669Z,9.50
2018-10-01T22:27:39.251Z,9.20
2018-10-01T22:30:08.009Z,9.17
2018-10-01T22:32:36.807Z,8.10
2018-10-01T22:35:05.958Z,9.73
2018-10-01T22:37:34.622Z,9.67
2018-10-01T22:40:03.408Z,9.60
2018-10-01T22:42:31.844Z,9.07
2018-10-01T22:45:01.316Z,9.27
2018-10-01T22:47:29.855Z,9.80
2018-10-01T22:49:58.237Z,10.07
2018-10-01T22:52:27.554Z,10.47
2018-10-01T22:54:56.043Z,9.63
2018-10-01T22:57:24.612Z,9.47
2018-10-01T22:59:53.493Z,9.57
2018-10-01T23:02:22.264Z,9.60
2018-10-01T23:04:50.674Z,8.93
2018-10-01T23:07:19.319Z,10.03
2018-10-01T23:09:48.577Z,9.40
2018-10-01T23:12:17.299Z,9.43
2018-10-01T23:14:45.737Z,9.27
2018-10-01T23:17:14.876Z,8.57
2018-10-01T23:19:43.454Z,9.70
2018-10-01T23:22:12.178Z,8.90
2018-10-01T23:24:40.554Z,9.40
2018-10-01T23:27:09.152Z,9.63
2018-10-01T23:29:37.940Z,10.43
2018-10-01T23:32:06.415Z,10.30
2018-10-01T23:34:35.368Z,10.80
2018-10-01T23:37:03.722Z,9.93
2018-10-01T23:39:32.698Z,10.50
2018-10-01T23:42:01.072Z,11.40
2018-10-01T23:44:29.523Z,10.90
2018-10-01T23:46:58.404Z,11.37
2018-10-01T23:49:26.788Z,10.57
2018-10-01T23:51:55.536Z,11.27
2018-10-01T23:54:23.977Z,11.10
2018-10-01T23:56:52.745Z,10.87
2018-10-01T23:59:21.332Z,10.50
